createdAt,value
2017-08-01T00:00:06.990Z,1005.55
2017-08-01T00:01:06.934Z,1005.45
2017-08-01T00:02:06.948Z,1005.38
2017-08-01T00:03:07.013Z,1005.37
2017-08-01T00:04:07.021Z,1005.43
2017-08-01T00:05:07.026Z,1005.38
2017-08-01T00:06:06.917Z,1005.40
2017-08-01T00:07:06.943Z,1005.41
2017-08-01T00:08:06.946Z,1005.45
2017-08-01T00:09:06.973Z,1005.47
2017-08-01T00:10:06.949Z,1005.55
2017-08-01T00:11:06.916Z,1005.54
2017-08-01T00:12:06.976Z,1005.49
2017-08-01T00:13:06.950Z,1005.51
2017-08-01T00:14:06.950Z,1005.49
2017-08-01T00:15:06.984Z,1005.47
2017-08-01T00:16:06.944Z,1005.48
2017-08-01T00:17:06.947Z,1005.65
2017-08-01T00:18:06.912Z,1005.72
2017-08-01T00:19:06.942Z,1005.60
2017-08-01T00:20:06.980Z,1005.48
2017-08-01T00:21:06.977Z,1005.36
2017-08-01T00:22:06.945Z,1005.33
2017-08-01T00:23:06.981Z,1005.25
2017-08-01T00:24:06.974Z,1005.24
2017-08-01T00:25:06.878Z,1005.21
2017-08-01T00:26:06.880Z,1005.11
2017-08-01T00:27:06.884Z,1005.09
2017-08-01T00:28:06.886Z,1004.98
2017-08-01T00:29:06.883Z,1004.85
2017-08-01T00:30:06.887Z,1004.69
2017-08-01T00:31:06.881Z,1004.60
2017-08-01T00:32:06.881Z,1004.56
2017-08-01T00:33:06.881Z,1004.32
2017-08-01T00:34:07.078Z,1004.17
2017-08-01T00:35:06.961Z,1003.89
2017-08-01T00:36:06.997Z,1003.61
2017-08-01T00:37:06.932Z,1003.57
2017-08-01T00:38:06.958Z,1003.67
2017-08-01T00:39:06.991Z,1003.93
2017-08-01T00:40:06.997Z,1004.11
2017-08-01T00:41:06.931Z,1003.99
2017-08-01T00:42:06.959Z,1003.85
2017-08-01T00:43:06.937Z,1003.72
2017-08-01T00:44:07.001Z,1003.64
2017-08-01T00:45:06.980Z,1003.65
2017-08-01T00:46:06.997Z,1003.55
2017-08-01T00:47:07.001Z,1003.52
2017-08-01T00:48:06.937Z,1003.47
2017-08-01T00:49:06.967Z,1003.59
2017-08-01T00:50:07.009Z,1003.67
2017-08-01T00:51:07.002Z,1003.79
2017-08-01T00:52:06.937Z,1003.99
2017-08-01T00:53:06.938Z,1004.11
2017-08-01T00:54:07.012Z,1004.18
2017-08-01T00:55:06.978Z,1004.34
2017-08-01T00:56:06.973Z,1004.39
2017-08-01T00:57:07.043Z,1004.48
2017-08-01T00:58:06.953Z,1004.51
2017-08-01T00:59:07.012Z,1004.59
2017-08-01T01:00:07.007Z,1004.61
2017-08-01T01:01:07.043Z,1004.70
2017-08-01T01:02:06.956Z,1004.70
2017-08-01T01:03:06.959Z,1004.72
2017-08-01T01:04:06.965Z,1004.72
2017-08-01T01:05:07.017Z,1004.77
2017-08-01T01:06:06.948Z,1004.79
2017-08-01T01:07:07.006Z,1004.85
2017-08-01T01:08:06.896Z,1004.84
2017-08-01T01:09:06.893Z,1004.89
2017-08-01T01:10:06.974Z,1004.95
2017-08-01T01:11:06.941Z,1005.01
2017-08-01T01:12:06.899Z,1005.03
2017-08-01T01:13:07.008Z,1004.99
2017-08-01T01:14:07.012Z,1004.98
2017-08-01T01:15:06.959Z,1004.86
2017-08-01T01:16:07.027Z,1004.88
2017-08-01T01:17:06.987Z,1004.83
2017-08-01T01:18:07.061Z,1004.85
2017-08-01T01:19:07.048Z,1004.81
2017-08-01T01:20:07.035Z,1004.75
2017-08-01T01:21:07.000Z,1004.63
2017-08-01T01:22:06.965Z,1004.52
2017-08-01T01:23:06.987Z,1004.31
2017-08-01T01:24:06.985Z,1004.25
2017-08-01T01:25:07.010Z,1004.19
2017-08-01T01:26:07.015Z,1004.22
2017-08-01T01:27:06.964Z,1004.27
2017-08-01T01:28:06.945Z,1004.21
2017-08-01T01:29:06.963Z,1004.12
2017-08-01T01:30:06.967Z,1004.11
2017-08-01T01:31:06.906Z,1004.10
2017-08-01T01:32:06.983Z,1004.14
2017-08-01T01:33:06.968Z,1004.23
2017-08-01T01:34:06.951Z,1004.24
2017-08-01T01:35:06.995Z,1004.18
2017-08-01T01:36:07.018Z,1004.10
2017-08-01T01:37:06.956Z,1004.00
2017-08-01T01:38:07.139Z,1003.99
2017-08-01T01:39:06.971Z,1004.09
2017-08-01T01:40:06.989Z,1003.96
2017-08-01T01:41:06.911Z,1003.81
2017-08-01T01:42:06.909Z,1003.68
2017-08-01T01:43:06.914Z,1003.85
2017-08-01T01:44:06.993Z,1004.13
2017-08-01T01:45:06.972Z,1004.31
2017-08-01T01:46:07.004Z,1004.31
2017-08-01T01:47:07.000Z,1004.35
2017-08-01T01:48:06.985Z,1004.47
2017-08-01T01:49:06.978Z,1004.63
2017-08-01T01:50:06.982Z,1004.67
2017-08-01T01:51:06.978Z,1004.71
2017-08-01T01:52:06.952Z,1004.69
2017-08-01T01:53:07.053Z,1004.57
2017-08-01T01:54:06.995Z,1004.48
2017-08-01T01:55:06.926Z,1004.62
2017-08-01T01:56:06.971Z,1004.71
2017-08-01T01:57:07.040Z,1004.80
2017-08-01T01:58:06.997Z,1004.90
2017-08-01T01:59:06.974Z,1004.94
2017-08-01T02:00:07.040Z,1004.95
2017-08-01T02:01:06.972Z,1004.94
2017-08-01T02:02:06.989Z,1004.92
2017-08-01T02:03:07.039Z,1004.87
2017-08-01T02:04:07.080Z,1004.96
2017-08-01T02:05:07.051Z,1005.12
2017-08-01T02:06:06.989Z,1005.09
2017-08-01T02:07:07.030Z,1004.78
2017-08-01T02:08:07.060Z,1004.58
2017-08-01T02:09:06.991Z,1004.68
2017-08-01T02:10:07.095Z,1004.85
2017-08-01T02:11:07.084Z,1004.87
2017-08-01T02:12:07.085Z,1004.94
2017-08-01T02:13:07.029Z,1004.87
2017-08-01T02:14:07.004Z,1004.65
2017-08-01T02:15:07.023Z,1004.49
2017-08-01T02:16:07.032Z,1004.70
2017-08-01T02:17:07.089Z,1004.60
2017-08-01T02:18:07.029Z,1004.48
2017-08-01T02:19:07.003Z,1004.55
2017-08-01T02:20:07.091Z,1004.42
2017-08-01T02:21:07.072Z,1004.30
2017-08-01T02:22:07.035Z,1004.16
2017-08-01T02:23:07.058Z,1004.36
2017-08-01T02:24:07.047Z,1004.38
2017-08-01T02:25:07.067Z,1004.31
2017-08-01T02:26:07.003Z,1004.30
2017-08-01T02:27:07.066Z,1004.31
2017-08-01T02:28:07.033Z,1004.28
2017-08-01T02:29:07.009Z,1004.21
2017-08-01T02:30:06.972Z,1004.19
2017-08-01T02:31:07.025Z,1004.27
2017-08-01T02:32:07.021Z,1004.26
2017-08-01T02:33:06.978Z,1004.23
2017-08-01T02:34:07.105Z,1004.22
2017-08-01T02:35:07.015Z,1004.32
2017-08-01T02:36:07.063Z,1004.23
2017-08-01T02:37:07.005Z,1004.23
2017-08-01T02:38:07.021Z,1004.29
2017-08-01T02:39:07.010Z,1004.31
2017-08-01T02:40:07.105Z,1004.34
2017-08-01T02:41:07.062Z,1004.42
2017-08-01T02:42:07.108Z,1004.46
2017-08-01T02:43:07.051Z,1004.46
2017-08-01T02:44:07.067Z,1004.50
2017-08-01T02:45:07.071Z,1004.54
2017-08-01T02:46:07.014Z,1004.63
2017-08-01T02:47:07.042Z,1004.74
2017-08-01T02:48:07.059Z,1004.73
2017-08-01T02:49:07.066Z,1004.72
2017-08-01T02:50:07.036Z,1004.67
2017-08-01T02:51:07.066Z,1004.44
2017-08-01T02:52:07.050Z,1004.32
2017-08-01T02:53:07.044Z,1004.28
2017-08-01T02:54:07.029Z,1004.55
2017-08-01T02:55:06.999Z,1004.63
2017-08-01T02:56:07.069Z,1004.66
2017-08-01T02:57:06.953Z,1004.66
2017-08-01T02:58:07.071Z,1004.54
2017-08-01T02:59:06.956Z,1004.37
2017-08-01T03:00:07.162Z,1004.24
2017-08-01T03:01:07.026Z,1004.32
2017-08-01T03:02:07.081Z,1004.36
2017-08-01T03:03:07.035Z,1004.39
2017-08-01T03:04:07.047Z,1004.35
2017-08-01T03:05:07.010Z,1004.53
2017-08-01T03:06:07.077Z,1004.77
2017-08-01T03:07:06.964Z,1004.69
2017-08-01T03:08:07.038Z,1004.72
2017-08-01T03:09:07.020Z,1004.92
2017-08-01T03:10:07.074Z,1004.70
2017-08-01T03:11:07.024Z,1004.53
2017-08-01T03:12:07.043Z,1004.22
2017-08-01T03:13:06.968Z,1003.98
2017-08-01T03:14:07.125Z,1003.86
2017-08-01T03:15:07.061Z,1004.03
2017-08-01T03:16:07.034Z,1004.03
2017-08-01T03:17:07.041Z,1003.96
2017-08-01T03:18:07.064Z,1003.74
2017-08-01T03:19:07.131Z,1003.44
2017-08-01T03:20:07.093Z,1003.16
2017-08-01T03:21:07.120Z,1003.17
2017-08-01T03:22:07.037Z,1003.13
2017-08-01T03:23:07.102Z,1002.92
2017-08-01T03:24:07.127Z,1002.69
2017-08-01T03:25:07.096Z,1002.57
2017-08-01T03:26:07.060Z,1002.63
2017-08-01T03:27:07.036Z,1002.68
2017-08-01T03:28:07.062Z,1002.84
2017-08-01T03:29:07.097Z,1002.94
2017-08-01T03:30:07.101Z,1002.95
2017-08-01T03:31:07.096Z,1002.99
2017-08-01T03:32:07.033Z,1003.21
2017-08-01T03:33:07.101Z,1003.51
2017-08-01T03:34:07.062Z,1003.71
2017-08-01T03:35:07.111Z,1003.74
2017-08-01T03:36:07.053Z,1003.81
2017-08-01T03:37:07.073Z,1003.89
2017-08-01T03:38:07.133Z,1003.88
2017-08-01T03:39:07.111Z,1003.84
2017-08-01T03:40:07.050Z,1003.76
2017-08-01T03:41:07.102Z,1003.72
2017-08-01T03:42:07.112Z,1003.78
2017-08-01T03:43:07.077Z,1003.67
2017-08-01T03:44:07.056Z,1003.60
2017-08-01T03:45:07.020Z,1003.42
2017-08-01T03:46:07.054Z,1003.32
2017-08-01T03:47:07.192Z,1003.22
2017-08-01T03:48:07.058Z,1003.25
2017-08-01T03:49:07.067Z,1003.09
2017-08-01T03:50:07.070Z,1003.14
2017-08-01T03:51:07.057Z,1003.11
2017-08-01T03:52:07.037Z,1003.11
2017-08-01T03:53:07.074Z,1003.10
2017-08-01T03:54:07.076Z,1003.05
2017-08-01T03:55:07.112Z,1003.07
2017-08-01T03:56:07.047Z,1003.01
2017-08-01T03:57:07.113Z,1003.01
2017-08-01T03:58:07.115Z,1002.93
2017-08-01T03:59:07.116Z,1002.99
2017-08-01T04:00:07.050Z,1002.88
2017-08-01T04:01:07.078Z,1002.84
2017-08-01T04:02:07.114Z,1002.82
2017-08-01T04:03:07.114Z,1002.81
2017-08-01T04:04:07.115Z,1002.90
2017-08-01T04:05:07.083Z,1002.95
2017-08-01T04:06:07.093Z,1002.91
2017-08-01T04:07:07.160Z,1002.99
2017-08-01T04:08:07.153Z,1003.00
2017-08-01T04:09:07.061Z,1003.05
2017-08-01T04:10:07.105Z,1003.12
2017-08-01T04:11:07.099Z,1003.19
2017-08-01T04:12:07.070Z,1003.21
2017-08-01T04:13:07.069Z,1003.23
2017-08-01T04:14:07.165Z,1003.27
2017-08-01T04:15:07.084Z,1003.31
2017-08-01T04:16:07.073Z,1003.24
2017-08-01T04:17:07.078Z,1003.23
2017-08-01T04:18:07.088Z,1003.24
2017-08-01T04:19:07.089Z,1003.20
2017-08-01T04:20:07.138Z,1003.24
2017-08-01T04:21:07.080Z,1003.27
2017-08-01T04:22:07.093Z,1003.28
2017-08-01T04:23:07.044Z,1003.38
2017-08-01T04:24:07.088Z,1003.45
2017-08-01T04:25:07.109Z,1003.51
2017-08-01T04:26:07.105Z,1003.58
2017-08-01T04:27:07.069Z,1003.72
2017-08-01T04:28:07.127Z,1003.75
2017-08-01T04:29:07.143Z,1003.80
2017-08-01T04:30:07.139Z,1003.99
2017-08-01T04:31:07.140Z,1004.14
2017-08-01T04:32:07.170Z,1004.28
2017-08-01T04:33:07.075Z,1004.44
2017-08-01T04:34:07.134Z,1004.52
2017-08-01T04:35:07.110Z,1004.62
2017-08-01T04:36:07.128Z,1004.76
2017-08-01T04:37:07.159Z,1004.86
2017-08-01T04:38:07.082Z,1004.96
2017-08-01T04:39:07.142Z,1005.04
2017-08-01T04:40:07.171Z,1005.04
2017-08-01T04:41:07.142Z,1004.98
2017-08-01T04:42:07.114Z,1005.06
2017-08-01T04:43:07.149Z,1005.09
2017-08-01T04:44:07.080Z,1005.10
2017-08-01T04:45:07.078Z,1005.16
2017-08-01T04:46:07.074Z,1005.21
2017-08-01T04:47:07.105Z,1005.29
2017-08-01T04:48:07.103Z,1005.52
2017-08-01T04:49:07.112Z,1005.69
2017-08-01T04:50:07.103Z,1005.78
2017-08-01T04:51:07.107Z,1005.76
2017-08-01T04:52:07.107Z,1005.81
2017-08-01T04:53:07.110Z,1005.82
2017-08-01T04:54:07.088Z,1005.78
2017-08-01T04:55:07.143Z,1005.78
2017-08-01T04:56:07.091Z,1005.83
2017-08-01T04:57:07.086Z,1005.90
2017-08-01T04:58:07.179Z,1005.91
2017-08-01T04:59:07.129Z,1005.95
2017-08-01T05:00:07.235Z,1005.87
2017-08-01T05:01:07.157Z,1005.77
2017-08-01T05:02:07.121Z,1005.63
2017-08-01T05:03:07.180Z,1005.51
2017-08-01T05:04:07.127Z,1005.42
2017-08-01T05:05:07.091Z,1005.30
2017-08-01T05:06:07.092Z,1005.21
2017-08-01T05:07:07.180Z,1005.08
2017-08-01T05:08:07.179Z,1004.96
2017-08-01T05:09:07.195Z,1004.87
2017-08-01T05:10:07.122Z,1004.75
2017-08-01T05:11:07.147Z,1004.63
2017-08-01T05:12:07.151Z,1004.49
2017-08-01T05:13:07.130Z,1004.21
2017-08-01T05:14:07.102Z,1004.03
2017-08-01T05:15:07.137Z,1003.85
2017-08-01T05:16:07.153Z,1003.68
2017-08-01T05:17:07.098Z,1003.54
2017-08-01T05:18:07.131Z,1003.42
2017-08-01T05:19:07.109Z,1003.15
2017-08-01T05:20:07.102Z,1002.83
2017-08-01T05:21:07.206Z,1002.44
2017-08-01T05:22:07.132Z,1002.19
2017-08-01T05:23:07.133Z,1002.13
2017-08-01T05:24:07.105Z,1002.08
2017-08-01T05:25:07.166Z,1002.06
2017-08-01T05:26:07.105Z,1001.95
2017-08-01T05:27:07.137Z,1001.87
2017-08-01T05:28:07.172Z,1001.79
2017-08-01T05:29:07.109Z,1001.72
2017-08-01T05:30:07.106Z,1001.69
2017-08-01T05:31:07.108Z,1001.63
2017-08-01T05:32:07.201Z,1001.49
2017-08-01T05:33:07.186Z,1001.42
2017-08-01T05:34:07.197Z,1001.50
2017-08-01T05:35:07.110Z,1001.54
2017-08-01T05:36:07.145Z,1001.49
2017-08-01T05:37:07.177Z,1001.48
2017-08-01T05:38:07.135Z,1001.63
2017-08-01T05:39:07.207Z,1002.01
2017-08-01T05:40:07.146Z,1002.43
2017-08-01T05:41:07.113Z,1002.84
2017-08-01T05:42:07.109Z,1003.11
2017-08-01T05:43:07.147Z,1003.14
2017-08-01T05:44:07.145Z,1003.11
2017-08-01T05:45:07.141Z,1003.18
2017-08-01T05:46:07.154Z,1003.08
2017-08-01T05:47:07.204Z,1003.14
2017-08-01T05:48:07.181Z,1003.33
2017-08-01T05:49:07.121Z,1003.35
2017-08-01T05:50:07.191Z,1003.13
2017-08-01T05:51:07.119Z,1003.19
2017-08-01T05:52:07.224Z,1003.46
2017-08-01T05:53:07.185Z,1003.51
2017-08-01T05:54:07.149Z,1003.43
2017-08-01T05:55:07.192Z,1003.51
2017-08-01T05:56:07.190Z,1003.71
2017-08-01T05:57:07.161Z,1003.68
2017-08-01T05:58:07.182Z,1003.58
2017-08-01T05:59:07.163Z,1003.77
2017-08-01T06:00:07.127Z,1003.92
2017-08-01T06:01:07.216Z,1003.88
2017-08-01T06:02:07.193Z,1003.84
2017-08-01T06:03:07.132Z,1003.96
2017-08-01T06:04:07.193Z,1004.08
2017-08-01T06:05:07.189Z,1003.95
2017-08-01T06:06:07.227Z,1003.87
2017-08-01T06:07:07.223Z,1003.99
2017-08-01T06:08:07.156Z,1004.04
2017-08-01T06:09:07.224Z,1004.08
2017-08-01T06:10:07.158Z,1004.12
2017-08-01T06:11:07.159Z,1004.17
2017-08-01T06:12:07.218Z,1004.24
2017-08-01T06:13:07.165Z,1004.30
2017-08-01T06:14:07.153Z,1004.28
2017-08-01T06:15:07.152Z,1004.24
2017-08-01T06:16:07.171Z,1004.25
2017-08-01T06:17:07.132Z,1004.29
2017-08-01T06:18:07.222Z,1004.27
2017-08-01T06:19:07.234Z,1004.29
2017-08-01T06:20:07.134Z,1004.31
2017-08-01T06:21:07.173Z,1004.29
2017-08-01T06:22:07.229Z,1004.33
2017-08-01T06:23:07.231Z,1004.25
2017-08-01T06:24:07.169Z,1004.27
2017-08-01T06:25:07.174Z,1004.29
2017-08-01T06:26:07.273Z,1004.25
2017-08-01T06:27:07.142Z,1004.28
2017-08-01T06:28:07.139Z,1004.26
2017-08-01T06:29:07.216Z,1004.21
2017-08-01T06:30:07.213Z,1004.22
2017-08-01T06:31:07.215Z,1004.21
2017-08-01T06:32:07.142Z,1004.24
2017-08-01T06:33:07.176Z,1004.26
2017-08-01T06:34:07.214Z,1004.31
2017-08-01T06:35:07.201Z,1004.33
2017-08-01T06:36:07.165Z,1004.34
2017-08-01T06:37:07.248Z,1004.35
2017-08-01T06:38:07.146Z,1004.32
2017-08-01T06:39:07.232Z,1004.36
2017-08-01T06:40:07.183Z,1004.40
2017-08-01T06:41:07.146Z,1004.43
2017-08-01T06:42:07.233Z,1004.45
2017-08-01T06:43:07.187Z,1004.42
2017-08-01T06:44:07.216Z,1004.48
2017-08-01T06:45:07.242Z,1004.49
2017-08-01T06:46:07.186Z,1004.52
2017-08-01T06:47:07.186Z,1004.55
2017-08-01T06:48:07.155Z,1004.45
2017-08-01T06:49:07.149Z,1004.47
2017-08-01T06:50:07.245Z,1004.42
2017-08-01T06:51:07.251Z,1004.41
2017-08-01T06:52:07.191Z,1004.41
2017-08-01T06:53:07.212Z,1004.34
2017-08-01T06:54:07.195Z,1004.34
2017-08-01T06:55:07.231Z,1004.45
2017-08-01T06:56:07.266Z,1004.53
2017-08-01T06:57:07.218Z,1004.59
2017-08-01T06:58:07.154Z,1004.68
2017-08-01T06:59:07.217Z,1004.68
2017-08-01T07:00:07.197Z,1004.76
2017-08-01T07:01:07.199Z,1004.75
2017-08-01T07:02:07.248Z,1004.82
2017-08-01T07:03:07.180Z,1004.85
2017-08-01T07:04:07.249Z,1004.85
2017-08-01T07:05:07.219Z,1004.83
2017-08-01T07:06:07.218Z,1004.84
2017-08-01T07:07:07.188Z,1004.82
2017-08-01T07:08:07.158Z,1004.92
2017-08-01T07:09:07.260Z,1004.93
2017-08-01T07:10:07.192Z,1005.07
2017-08-01T07:11:07.164Z,1005.13
2017-08-01T07:12:07.226Z,1005.09
2017-08-01T07:13:07.158Z,1005.14
2017-08-01T07:14:07.225Z,1005.10
2017-08-01T07:15:07.234Z,1005.10
2017-08-01T07:16:07.228Z,1005.13
2017-08-01T07:17:07.202Z,1005.17
2017-08-01T07:18:07.210Z,1005.22
2017-08-01T07:19:07.267Z,1005.26
2017-08-01T07:20:07.273Z,1005.24
2017-08-01T07:21:07.176Z,1005.24
2017-08-01T07:22:07.176Z,1005.29
2017-08-01T07:23:07.261Z,1005.37
2017-08-01T07:24:07.268Z,1005.46
2017-08-01T07:25:07.301Z,1005.53
2017-08-01T07:26:07.176Z,1005.48
2017-08-01T07:27:07.175Z,1005.47
2017-08-01T07:28:07.199Z,1005.46
2017-08-01T07:29:07.265Z,1005.47
2017-08-01T07:30:07.229Z,1005.55
2017-08-01T07:31:07.178Z,1005.61
2017-08-01T07:32:07.171Z,1005.63
2017-08-01T07:33:07.216Z,1005.72
2017-08-01T07:34:07.243Z,1005.69
2017-08-01T07:35:07.270Z,1005.68
2017-08-01T07:36:07.180Z,1005.71
2017-08-01T07:37:07.208Z,1005.64
2017-08-01T07:38:07.183Z,1005.66
2017-08-01T07:39:07.205Z,1005.57
2017-08-01T07:40:07.268Z,1005.57
2017-08-01T07:41:07.251Z,1005.47
2017-08-01T07:42:07.270Z,1005.46
2017-08-01T07:43:07.265Z,1005.47
2017-08-01T07:44:07.219Z,1005.48
2017-08-01T07:45:07.218Z,1005.52
2017-08-01T07:46:07.241Z,1005.57
2017-08-01T07:47:07.188Z,1005.53
2017-08-01T07:48:07.188Z,1005.48
2017-08-01T07:49:07.261Z,1005.47
2017-08-01T07:50:07.192Z,1005.44
2017-08-01T07:51:07.253Z,1005.49
2017-08-01T07:52:07.263Z,1005.48
2017-08-01T07:53:07.194Z,1005.50
2017-08-01T07:54:07.280Z,1005.45
2017-08-01T07:55:07.196Z,1005.41
2017-08-01T07:56:07.289Z,1005.39
2017-08-01T07:57:07.291Z,1005.41
2017-08-01T07:58:07.220Z,1005.45
2017-08-01T07:59:07.284Z,1005.43
2017-08-01T08:00:07.258Z,1005.44
2017-08-01T08:01:07.222Z,1005.50
2017-08-01T08:02:07.199Z,1005.52
2017-08-01T08:03:07.198Z,1005.54
2017-08-01T08:04:07.290Z,1005.55
2017-08-01T08:05:07.269Z,1005.61
2017-08-01T08:06:07.220Z,1005.52
2017-08-01T08:07:07.254Z,1005.48
2017-08-01T08:08:07.268Z,1005.49
2017-08-01T08:09:07.261Z,1005.47
2017-08-01T08:10:07.232Z,1005.48
2017-08-01T08:11:07.206Z,1005.49
2017-08-01T08:12:07.237Z,1005.52
2017-08-01T08:13:07.199Z,1005.56
2017-08-01T08:14:07.289Z,1005.57
2017-08-01T08:15:07.271Z,1005.52
2017-08-01T08:16:07.227Z,1005.46
2017-08-01T08:17:07.293Z,1005.44
2017-08-01T08:18:07.232Z,1005.42
2017-08-01T08:19:07.296Z,1005.35
2017-08-01T08:20:07.292Z,1005.24
2017-08-01T08:21:07.261Z,1005.17
2017-08-01T08:22:07.212Z,1005.16
2017-08-01T08:23:07.237Z,1005.23
2017-08-01T08:24:07.307Z,1005.24
2017-08-01T08:25:07.250Z,1005.30
2017-08-01T08:26:07.254Z,1005.32
2017-08-01T08:27:07.265Z,1005.26
2017-08-01T08:28:07.214Z,1005.13
2017-08-01T08:29:07.245Z,1004.93
2017-08-01T08:30:07.216Z,1004.81
2017-08-01T08:31:07.213Z,1004.68
2017-08-01T08:32:07.272Z,1004.68
2017-08-01T08:33:07.282Z,1004.56
2017-08-01T08:34:07.245Z,1004.43
2017-08-01T08:35:07.217Z,1004.43
2017-08-01T08:36:07.279Z,1004.43
2017-08-01T08:37:07.304Z,1004.44
2017-08-01T08:38:07.257Z,1004.50
2017-08-01T08:39:07.302Z,1004.48
2017-08-01T08:40:07.245Z,1004.47
2017-08-01T08:41:07.212Z,1004.47
2017-08-01T08:42:07.250Z,1004.52
2017-08-01T08:43:07.257Z,1004.54
2017-08-01T08:44:07.317Z,1004.62
2017-08-01T08:45:07.217Z,1004.67
2017-08-01T08:46:07.223Z,1004.73
2017-08-01T08:47:07.222Z,1004.83
2017-08-01T08:48:07.253Z,1004.98
2017-08-01T08:49:07.291Z,1005.10
2017-08-01T08:50:07.225Z,1005.17
2017-08-01T08:51:07.313Z,1005.30
2017-08-01T08:52:07.320Z,1005.33
2017-08-01T08:53:07.260Z,1005.35
2017-08-01T08:54:07.291Z,1005.36
2017-08-01T08:55:07.228Z,1005.37
2017-08-01T08:56:07.406Z,1005.47
2017-08-01T08:57:07.260Z,1005.47
2017-08-01T08:58:07.266Z,1005.52
2017-08-01T08:59:07.286Z,1005.53
2017-08-01T09:00:07.265Z,1005.53
2017-08-01T09:01:07.229Z,1005.54
2017-08-01T09:02:07.304Z,1005.56
2017-08-01T09:03:07.235Z,1005.52
2017-08-01T09:04:07.228Z,1005.49
2017-08-01T09:06:07.255Z,1005.32
2017-08-01T09:07:07.287Z,1005.28
2017-08-01T09:08:07.328Z,1005.20
2017-08-01T09:09:07.234Z,1005.17
2017-08-01T09:10:07.324Z,1005.09
2017-08-01T09:11:07.269Z,1005.02
2017-08-01T09:12:07.234Z,1004.99
2017-08-01T09:13:07.294Z,1004.94
2017-08-01T09:14:07.239Z,1004.84
2017-08-01T09:15:07.268Z,1004.77
2017-08-01T09:16:07.297Z,1004.74
2017-08-01T09:17:07.254Z,1004.82
2017-08-01T09:18:07.253Z,1004.90
2017-08-01T09:19:07.259Z,1004.98
2017-08-01T09:20:07.243Z,1005.03
2017-08-01T09:21:07.259Z,1005.14
2017-08-01T09:22:07.263Z,1005.27
2017-08-01T09:23:07.208Z,1005.40
2017-08-01T09:24:07.287Z,1005.51
2017-08-01T09:25:07.264Z,1005.68
2017-08-01T09:26:07.283Z,1005.88
2017-08-01T09:27:07.283Z,1006.08
2017-08-01T09:28:07.322Z,1006.18
2017-08-01T09:29:07.253Z,1006.27
2017-08-01T09:30:07.318Z,1006.29
2017-08-01T09:31:07.336Z,1006.28
2017-08-01T09:32:07.244Z,1006.36
2017-08-01T09:33:07.253Z,1006.39
2017-08-01T09:34:07.254Z,1006.43
2017-08-01T09:35:07.306Z,1006.37
2017-08-01T09:36:07.254Z,1006.32
2017-08-01T09:37:07.269Z,1006.27
2017-08-01T09:38:07.223Z,1006.32
2017-08-01T09:39:07.226Z,1006.38
2017-08-01T09:40:07.276Z,1006.37
2017-08-01T09:41:07.269Z,1006.45
2017-08-01T09:42:07.265Z,1006.50
2017-08-01T09:43:07.228Z,1006.53
2017-08-01T09:44:07.284Z,1006.58
2017-08-01T09:45:07.256Z,1006.52
2017-08-01T09:46:07.351Z,1006.48
2017-08-01T09:47:07.256Z,1006.55
2017-08-01T09:48:07.328Z,1006.54
2017-08-01T09:49:07.289Z,1006.51
2017-08-01T09:50:07.286Z,1006.55
2017-08-01T09:51:07.354Z,1006.54
2017-08-01T09:52:07.264Z,1006.48
2017-08-01T09:53:07.325Z,1006.60
2017-08-01T09:54:07.322Z,1006.58
2017-08-01T09:55:07.286Z,1006.61
2017-08-01T09:56:07.288Z,1006.66
2017-08-01T09:57:07.315Z,1006.76
2017-08-01T09:58:07.311Z,1006.63
2017-08-01T09:59:07.257Z,1006.64
2017-08-01T10:00:07.283Z,1006.62
2017-08-01T10:01:07.316Z,1006.64
2017-08-01T10:02:07.322Z,1006.57
2017-08-01T10:03:07.319Z,1006.57
2017-08-01T10:04:07.319Z,1006.52
2017-08-01T10:05:07.322Z,1006.60
2017-08-01T10:06:07.267Z,1006.61
2017-08-01T10:07:07.265Z,1006.58
2017-08-01T10:08:07.305Z,1006.63
2017-08-01T10:09:07.271Z,1006.58
2017-08-01T10:10:07.322Z,1006.48
2017-08-01T10:11:07.292Z,1006.48
2017-08-01T10:12:07.359Z,1006.44
2017-08-01T10:13:07.294Z,1006.25
2017-08-01T10:14:07.307Z,1006.04
2017-08-01T10:15:07.340Z,1005.90
2017-08-01T10:16:07.332Z,1005.46
2017-08-01T10:17:07.293Z,1004.93
2017-08-01T10:18:07.343Z,1004.66
2017-08-01T10:19:07.367Z,1004.55
2017-08-01T10:20:07.369Z,1004.64
2017-08-01T10:21:07.275Z,1004.72
2017-08-01T10:22:07.301Z,1004.77
2017-08-01T10:23:07.369Z,1004.76
2017-08-01T10:24:07.280Z,1004.73
2017-08-01T10:25:07.337Z,1004.86
2017-08-01T10:26:07.286Z,1004.86
2017-08-01T10:27:07.281Z,1004.86
2017-08-01T10:28:07.285Z,1004.87
2017-08-01T10:29:07.340Z,1004.78
2017-08-01T10:30:07.285Z,1004.75
2017-08-01T10:31:07.355Z,1004.75
2017-08-01T10:32:07.378Z,1004.71
2017-08-01T10:33:07.287Z,1004.73
2017-08-01T10:34:07.347Z,1004.69
2017-08-01T10:35:07.317Z,1004.76
2017-08-01T10:36:07.344Z,1004.77
2017-08-01T10:37:07.340Z,1004.80
2017-08-01T10:38:07.275Z,1004.86
2017-08-01T10:39:07.342Z,1004.91
2017-08-01T10:40:07.309Z,1004.84
2017-08-01T10:41:07.344Z,1004.82
2017-08-01T10:42:07.346Z,1004.60
2017-08-01T10:43:07.281Z,1004.45
2017-08-01T10:44:07.340Z,1004.31
2017-08-01T10:45:07.285Z,1004.17
2017-08-01T10:46:07.340Z,1004.00
2017-08-01T10:47:07.313Z,1003.93
2017-08-01T10:48:07.350Z,1003.86
2017-08-01T10:49:07.286Z,1003.87
2017-08-01T10:50:07.280Z,1003.89
2017-08-01T10:51:07.343Z,1003.93
2017-08-01T10:52:07.317Z,1003.91
2017-08-01T10:53:07.316Z,1003.95
2017-08-01T10:54:07.282Z,1003.89
2017-08-01T10:55:07.347Z,1003.85
2017-08-01T10:56:07.328Z,1003.80
2017-08-01T10:57:07.392Z,1003.78
2017-08-01T10:58:07.294Z,1003.68
2017-08-01T10:59:07.298Z,1003.67
2017-08-01T11:00:07.383Z,1003.78
2017-08-01T11:01:07.326Z,1003.79
2017-08-01T11:02:07.357Z,1003.67
2017-08-01T11:03:07.375Z,1003.51
2017-08-01T11:04:07.394Z,1003.52
2017-08-01T11:05:07.301Z,1003.66
2017-08-01T11:06:07.326Z,1003.72
2017-08-01T11:07:07.309Z,1003.73
2017-08-01T11:08:07.322Z,1003.76
2017-08-01T11:09:07.399Z,1003.81
2017-08-01T11:10:07.398Z,1003.89
2017-08-01T11:11:07.342Z,1003.98
2017-08-01T11:12:07.399Z,1004.12
2017-08-01T11:13:07.308Z,1004.11
2017-08-01T11:14:07.390Z,1004.15
2017-08-01T11:15:07.368Z,1004.16
2017-08-01T11:16:07.310Z,1004.18
2017-08-01T11:17:07.366Z,1004.27
2017-08-01T11:18:07.373Z,1004.26
2017-08-01T11:19:07.316Z,1004.27
2017-08-01T11:20:07.403Z,1004.40
2017-08-01T11:21:07.310Z,1004.42
2017-08-01T11:22:07.385Z,1004.45
2017-08-01T11:23:07.372Z,1004.56
2017-08-01T11:24:07.386Z,1004.58
2017-08-01T11:25:07.335Z,1004.56
2017-08-01T11:26:07.379Z,1004.55
2017-08-01T11:27:07.407Z,1004.57
2017-08-01T11:28:07.380Z,1004.53
2017-08-01T11:29:07.351Z,1004.54
2017-08-01T11:30:07.319Z,1004.52
2017-08-01T11:31:07.338Z,1004.47
2017-08-01T11:32:07.345Z,1004.42
2017-08-01T11:33:07.344Z,1004.42
2017-08-01T11:34:07.317Z,1004.50
2017-08-01T11:35:07.321Z,1004.44
2017-08-01T11:36:07.414Z,1004.47
2017-08-01T11:37:07.354Z,1004.45
2017-08-01T11:38:07.411Z,1004.46
2017-08-01T11:39:07.348Z,1004.53
2017-08-01T11:40:07.343Z,1004.43
2017-08-01T11:41:07.378Z,1004.56
2017-08-01T11:42:07.397Z,1004.53
2017-08-01T11:43:07.347Z,1004.57
2017-08-01T11:44:07.419Z,1004.60
2017-08-01T11:45:07.328Z,1004.57
2017-08-01T11:46:07.377Z,1004.54
2017-08-01T11:47:07.386Z,1004.55
2017-08-01T11:48:07.419Z,1004.61
2017-08-01T11:49:07.395Z,1004.65
2017-08-01T11:50:07.390Z,1004.73
2017-08-01T11:51:07.361Z,1004.77
2017-08-01T11:52:07.328Z,1004.79
2017-08-01T11:53:07.446Z,1004.88
2017-08-01T11:54:07.350Z,1004.90
2017-08-01T11:55:07.382Z,1004.93
2017-08-01T11:56:07.385Z,1004.95
2017-08-01T11:57:07.409Z,1004.98
2017-08-01T11:58:07.368Z,1005.03
2017-08-01T11:59:07.405Z,1005.05
2017-08-01T12:00:07.337Z,1005.00
2017-08-01T12:01:07.366Z,1005.07
2017-08-01T12:02:07.393Z,1005.02
2017-08-01T12:03:07.430Z,1005.02
2017-08-01T12:04:07.401Z,1005.04
2017-08-01T12:05:07.335Z,1005.06
2017-08-01T12:06:07.397Z,1005.06